sensor_id;sensor_type;location;lat;lon;timestamp;temperature;humidity
53208;DHT22;39093;52.788;6.940;2023-04-24T00:01:59;10.50;99.90
53208;DHT22;39093;52.788;6.940;2023-04-24T00:04:27;10.50;99.90
53208;DHT22;39093;52.788;6.940;2023-04-24T00:06:55;10.50;99.90
53208;DHT22;39093;52.788;6.940;2023-04-24T00:09:24;10.40;99.90
53208;DHT22;39093;52.788;6.940;2023-04-24T00:11:51;10.40;99.90
53208;DHT22;39093;52.788;6.940;2023-04-24T00:14:18;10.40;99.90
53208;DHT22;39093;52.788;6.940;2023-04-24T00:16:45;10.50;99.90
53208;DHT22;39093;52.788;6.940;2023-04-24T00:19:11;10.30;99.90
53208;DHT22;39093;52.788;6.940;2023-04-24T00:21:40;10.40;99.90
53208;DHT22;39093;52.788;6.940;2023-04-24T00:24:07;10.30;99.90
53208;DHT22;39093;52.788;6.940;2023-04-24T00:26:37;10.30;99.90
53208;DHT22;39093;52.788;6.940;2023-04-24T00:29:04;10.30;99.90
53208;DHT22;39093;52.788;6.940;2023-04-24T00:31:31;10.20;99.90
53208;DHT22;39093;52.788;6.940;2023-04-24T00:33:58;10.30;99.90
53208;DHT22;39093;52.788;6.940;2023-04-24T00:36:25;10.20;99.90
53208;DHT22;39093;52.788;6.940;2023-04-24T00:38:54;10.20;99.90
53208;DHT22;39093;52.788;6.940;2023-04-24T00:41:21;10.20;99.90
53208;DHT22;39093;52.788;6.940;2023-04-24T00:43:48;10.20;99.90
53208;DHT22;39093;52.788;6.940;2023-04-24T00:46:16;10.20;99.90
53208;DHT22;39093;52.788;6.940;2023-04-24T00:48:43;10.10;99.90
53208;DHT22;39093;52.788;6.940;2023-04-24T00:51:10;10.10;99.90
53208;DHT22;39093;52.788;6.940;2023-04-24T00:53:37;10.10;99.90
53208;DHT22;39093;52.788;6.940;2023-04-24T00:56:04;10.00;99.90
53208;DHT22;39093;52.788;6.940;2023-04-24T00:58:32;10.00;99.90
53208;DHT22;39093;52.788;6.940;2023-04-24T01:01:00;10.10;99.90
53208;DHT22;39093;52.788;6.940;2023-04-24T01:03:29;10.00;99.90
53208;DHT22;39093;52.788;6.940;2023-04-24T01:05:59;9.90;99.90
53208;DHT22;39093;52.788;6.940;2023-04-24T01:08:26;9.90;99.90
53208;DHT22;39093;52.788;6.940;2023-04-24T01:10:55;10.00;99.90
53208;DHT22;39093;52.788;6.940;2023-04-24T01:13:23;9.90;99.90
53208;DHT22;39093;52.788;6.940;2023-04-24T01:15:50;10.10;99.90
53208;DHT22;39093;52.788;6.940;2023-04-24T01:18:17;10.00;99.90
53208;DHT22;39093;52.788;6.940;2023-04-24T01:20:45;10.00;99.90
53208;DHT22;39093;52.788;6.940;2023-04-24T01:23:13;9.90;99.90
53208;DHT22;39093;52.788;6.940;2023-04-24T01:25:40;10.00;99.90
53208;DHT22;39093;52.788;6.940;2023-04-24T01:28:07;10.00;99.90
53208;DHT22;39093;52.788;6.940;2023-04-24T01:30:34;10.00;99.90
53208;DHT22;39093;52.788;6.940;2023-04-24T01:33:04;9.80;99.90
53208;DHT22;39093;52.788;6.940;2023-04-24T01:35:32;9.80;99.90
53208;DHT22;39093;52.788;6.940;2023-04-24T01:37:59;10.00;99.90
53208;DHT22;39093;52.788;6.940;2023-04-24T01:40:26;9.90;99.90
53208;DHT22;39093;52.788;6.940;2023-04-24T01:42:53;9.90;99.90
53208;DHT22;39093;52.788;6.940;2023-04-24T01:45:20;10.00;99.90
53208;DHT22;39093;52.788;6.940;2023-04-24T01:47:47;9.80;99.90
53208;DHT22;39093;52.788;6.940;2023-04-24T01:50:15;9.90;99.90
53208;DHT22;39093;52.788;6.940;2023-04-24T01:52:42;9.80;99.90
53208;DHT22;39093;52.788;6.940;2023-04-24T01:55:10;9.90;99.90
53208;DHT22;39093;52.788;6.940;2023-04-24T01:57:37;9.80;99.90
53208;DHT22;39093;52.788;6.940;2023-04-24T02:00:04;9.80;99.90
53208;DHT22;39093;52.788;6.940;2023-04-24T02:02:32;9.80;99.90
53208;DHT22;39093;52.788;6.940;2023-04-24T02:04:59;9.90;99.90
53208;DHT22;39093;52.788;6.940;2023-04-24T02:07:26;9.80;99.90
53208;DHT22;39093;52.788;6.940;2023-04-24T02:09:53;9.80;99.90
53208;DHT22;39093;52.788;6.940;2023-04-24T02:12:20;9.80;99.90
53208;DHT22;39093;52.788;6.940;2023-04-24T02:14:47;9.70;99.90
53208;DHT22;39093;52.788;6.940;2023-04-24T02:17:14;9.70;99.90
53208;DHT22;39093;52.788;6.940;2023-04-24T02:19:42;9.80;99.90
53208;DHT22;39093;52.788;6.940;2023-04-24T02:22:09;9.80;99.90
53208;DHT22;39093;52.788;6.940;2023-04-24T02:24:37;9.80;99.90
53208;DHT22;39093;52.788;6.940;2023-04-24T02:27:04;9.80;99.90
53208;DHT22;39093;52.788;6.940;2023-04-24T02:29:31;9.80;99.90
53208;DHT22;39093;52.788;6.940;2023-04-24T02:31:58;9.80;99.90
53208;DHT22;39093;52.788;6.940;2023-04-24T02:34:25;9.90;99.90
53208;DHT22;39093;52.788;6.940;2023-04-24T02:36:52;9.90;99.90
53208;DHT22;39093;52.788;6.940;2023-04-24T02:39:20;10.00;99.90
53208;DHT22;39093;52.788;6.940;2023-04-24T02:41:47;10.00;99.90
53208;DHT22;39093;52.788;6.940;2023-04-24T02:44:14;9.90;99.90
53208;DHT22;39093;52.788;6.940;2023-04-24T02:46:41;9.90;99.90
53208;DHT22;39093;52.788;6.940;2023-04-24T02:49:08;9.90;99.90
53208;DHT22;39093;52.788;6.940;2023-04-24T02:51:37;9.90;99.90
53208;DHT22;39093;52.788;6.940;2023-04-24T02:54:10;9.90;99.90
53208;DHT22;39093;52.788;6.940;2023-04-24T02:56:37;10.00;99.90
53208;DHT22;39093;52.788;6.940;2023-04-24T02:59:04;9.90;99.90
53208;DHT22;39093;52.788;6.940;2023-04-24T03:01:31;9.80;99.90
53208;DHT22;39093;52.788;6.940;2023-04-24T03:03:58;9.90;99.90
53208;DHT22;39093;52.788;6.940;2023-04-24T03:06:25;9.90;99.90
53208;DHT22;39093;52.788;6.940;2023-04-24T03:08:53;9.90;99.90
53208;DHT22;39093;52.788;6.940;2023-04-24T03:11:21;9.90;99.90
53208;DHT22;39093;52.788;6.940;2023-04-24T03:13:48;9.90;99.90
53208;DHT22;39093;52.788;6.940;2023-04-24T03:16:14;9.90;99.90
53208;DHT22;39093;52.788;6.940;2023-04-24T03:18:41;9.90;99.90
53208;DHT22;39093;52.788;6.940;2023-04-24T03:21:08;9.90;99.90
53208;DHT22;39093;52.788;6.940;2023-04-24T03:23:35;9.80;99.90
53208;DHT22;39093;52.788;6.940;2023-04-24T03:26:02;9.90;99.90
53208;DHT22;39093;52.788;6.940;2023-04-24T03:28:29;9.80;99.90
53208;DHT22;39093;52.788;6.940;2023-04-24T03:30:56;9.80;99.90
53208;DHT22;39093;52.788;6.940;2023-04-24T03:33:23;9.60;99.90
53208;DHT22;39093;52.788;6.940;2023-04-24T03:35:49;9.60;99.90
53208;DHT22;39093;52.788;6.940;2023-04-24T03:38:16;9.60;99.90
53208;DHT22;39093;52.788;6.940;2023-04-24T03:40:43;9.70;99.90
53208;DHT22;39093;52.788;6.940;2023-04-24T03:43:10;9.70;99.90
53208;DHT22;39093;52.788;6.940;2023-04-24T03:45:37;9.70;99.90
53208;DHT22;39093;52.788;6.940;2023-04-24T03:48:04;9.60;99.90
53208;DHT22;39093;52.788;6.940;2023-04-24T03:50:31;9.50;99.90
53208;DHT22;39093;52.788;6.940;2023-04-24T03:52:58;9.50;99.90
53208;DHT22;39093;52.788;6.940;2023-04-24T03:55:25;9.40;99.90
53208;DHT22;39093;52.788;6.940;2023-04-24T03:57:51;9.50;99.90
53208;DHT22;39093;52.788;6.940;2023-04-24T04:00:18;9.50;99.90
53208;DHT22;39093;52.788;6.940;2023-04-24T04:02:46;9.50;99.90
53208;DHT22;39093;52.788;6.940;2023-04-24T04:05:13;9.40;99.90
53208;DHT22;39093;52.788;6.940;2023-04-24T04:07:40;9.50;99.90
53208;DHT22;39093;52.788;6.940;2023-04-24T04:10:07;9.50;99.90
53208;DHT22;39093;52.788;6.940;2023-04-24T04:12:34;9.60;99.90
53208;DHT22;39093;52.788;6.940;2023-04-24T04:15:01;9.50;99.90
53208;DHT22;39093;52.788;6.940;2023-04-24T04:17:28;9.50;99.90
53208;DHT22;39093;52.788;6.940;2023-04-24T04:19:55;9.50;99.90
53208;DHT22;39093;52.788;6.940;2023-04-24T04:22:23;9.50;99.90
53208;DHT22;39093;52.788;6.940;2023-04-24T04:24:49;9.50;99.90
53208;DHT22;39093;52.788;6.940;2023-04-24T04:27:17;9.60;99.90
53208;DHT22;39093;52.788;6.940;2023-04-24T04:29:45;9.60;99.90
53208;DHT22;39093;52.788;6.940;2023-04-24T04:32:13;9.50;99.90
53208;DHT22;39093;52.788;6.940;2023-04-24T04:34:42;9.50;99.90
53208;DHT22;39093;52.788;6.940;2023-04-24T04:37:09;9.40;99.90
53208;DHT22;39093;52.788;6.940;2023-04-24T04:39:37;9.40;99.90
53208;DHT22;39093;52.788;6.940;2023-04-24T04:42:04;9.50;99.90
53208;DHT22;39093;52.788;6.940;2023-04-24T04:44:31;9.50;99.90
53208;DHT22;39093;52.788;6.940;2023-04-24T04:46:57;9.50;99.90
53208;DHT22;39093;52.788;6.940;2023-04-24T04:49:25;9.50;99.90
53208;DHT22;39093;52.788;6.940;2023-04-24T04:51:55;9.40;99.90
53208;DHT22;39093;52.788;6.940;2023-04-24T04:54:22;9.40;99.90
53208;DHT22;39093;52.788;6.940;2023-04-24T04:56:52;9.50;99.90
53208;DHT22;39093;52.788;6.940;2023-04-24T04:59:19;9.50;99.90
53208;DHT22;39093;52.788;6.940;2023-04-24T05:01:46;9.40;99.90
53208;DHT22;39093;52.788;6.940;2023-04-24T05:04:13;9.40;99.90
53208;DHT22;39093;52.788;6.940;2023-04-24T05:06:40;9.30;99.90
53208;DHT22;39093;52.788;6.940;2023-04-24T05:09:07;9.30;99.90
53208;DHT22;39093;52.788;6.940;2023-04-24T05:11:34;9.40;99.90
53208;DHT22;39093;52.788;6.940;2023-04-24T05:14:01;9.40;99.90
53208;DHT22;39093;52.788;6.940;2023-04-24T05:16:28;9.40;99.90
53208;DHT22;39093;52.788;6.940;2023-04-24T05:18:55;9.40;99.90
53208;DHT22;39093;52.788;6.940;2023-04-24T05:21:22;9.40;99.90
53208;DHT22;39093;52.788;6.940;2023-04-24T05:23:49;9.50;99.90
53208;DHT22;39093;52.788;6.940;2023-04-24T05:26:16;9.60;99.90
53208;DHT22;39093;52.788;6.940;2023-04-24T05:28:44;9.50;99.90
53208;DHT22;39093;52.788;6.940;2023-04-24T05:31:11;9.60;99.90
53208;DHT22;39093;52.788;6.940;2023-04-24T05:33:39;9.50;99.90
53208;DHT22;39093;52.788;6.940;2023-04-24T05:36:06;9.60;99.90
53208;DHT22;39093;52.788;6.940;2023-04-24T05:38:34;9.60;99.90
53208;DHT22;39093;52.788;6.940;2023-04-24T05:41:03;9.60;99.90
53208;DHT22;39093;52.788;6.940;2023-04-24T05:43:30;9.60;99.90
53208;DHT22;39093;52.788;6.940;2023-04-24T05:45:57;9.50;99.90
53208;DHT22;39093;52.788;6.940;2023-04-24T05:48:24;9.60;99.90
53208;DHT22;39093;52.788;6.940;2023-04-24T05:50:51;9.60;99.90
53208;DHT22;39093;52.788;6.940;2023-04-24T05:53:19;9.60;99.90
53208;DHT22;39093;52.788;6.940;2023-04-24T05:55:46;9.70;99.90
53208;DHT22;39093;52.788;6.940;2023-04-24T05:58:13;9.70;99.90
53208;DHT22;39093;52.788;6.940;2023-04-24T06:00:41;9.60;99.90
53208;DHT22;39093;52.788;6.940;2023-04-24T06:03:09;9.60;99.90
53208;DHT22;39093;52.788;6.940;2023-04-24T06:05:36;9.70;99.90
53208;DHT22;39093;52.788;6.940;2023-04-24T06:08:03;9.70;99.90
53208;DHT22;39093;52.788;6.940;2023-04-24T06:10:30;9.70;99.90
53208;DHT22;39093;52.788;6.940;2023-04-24T06:12:58;9.70;99.90
53208;DHT22;39093;52.788;6.940;2023-04-24T06:15:29;9.60;99.90
53208;DHT22;39093;52.788;6.940;2023-04-24T06:17:57;9.60;99.90
53208;DHT22;39093;52.788;6.940;2023-04-24T06:20:25;9.60;99.90
53208;DHT22;39093;52.788;6.940;2023-04-24T06:22:52;9.60;99.90
53208;DHT22;39093;52.788;6.940;2023-04-24T06:25:19;9.50;99.90
53208;DHT22;39093;52.788;6.940;2023-04-24T06:27:46;9.50;99.90
53208;DHT22;39093;52.788;6.940;2023-04-24T06:30:13;9.40;99.90
53208;DHT22;39093;52.788;6.940;2023-04-24T06:32:40;9.40;99.90
53208;DHT22;39093;52.788;6.940;2023-04-24T06:35:10;9.40;99.90
53208;DHT22;39093;52.788;6.940;2023-04-24T06:37:42;9.40;99.90
53208;DHT22;39093;52.788;6.940;2023-04-24T06:40:09;9.40;99.90
53208;DHT22;39093;52.788;6.940;2023-04-24T06:42:36;9.40;99.90
53208;DHT22;39093;52.788;6.940;2023-04-24T06:45:04;9.40;99.90
53208;DHT22;39093;52.788;6.940;2023-04-24T06:47:31;9.40;99.90
53208;DHT22;39093;52.788;6.940;2023-04-24T06:49:58;9.50;99.90
53208;DHT22;39093;52.788;6.940;2023-04-24T06:52:25;9.40;99.90
53208;DHT22;39093;52.788;6.940;2023-04-24T06:54:52;9.30;99.90
53208;DHT22;39093;52.788;6.940;2023-04-24T06:57:26;9.30;99.90
53208;DHT22;39093;52.788;6.940;2023-04-24T06:59:53;9.40;99.90
53208;DHT22;39093;52.788;6.940;2023-04-24T07:02:21;9.30;99.90
53208;DHT22;39093;52.788;6.940;2023-04-24T07:04:48;9.30;99.90
53208;DHT22;39093;52.788;6.940;2023-04-24T07:07:15;9.30;99.90
53208;DHT22;39093;52.788;6.940;2023-04-24T07:09:43;9.30;99.90
53208;DHT22;39093;52.788;6.940;2023-04-24T07:12:11;9.30;99.90
53208;DHT22;39093;52.788;6.940;2023-04-24T07:14:39;9.20;99.90
53208;DHT22;39093;52.788;6.940;2023-04-24T07:17:06;9.30;99.90
53208;DHT22;39093;52.788;6.940;2023-04-24T07:19:33;9.20;99.90
53208;DHT22;39093;52.788;6.940;2023-04-24T07:22:02;9.20;99.90
53208;DHT22;39093;52.788;6.940;2023-04-24T07:24:30;9.30;99.90
53208;DHT22;39093;52.788;6.940;2023-04-24T07:26:59;9.20;99.90
53208;DHT22;39093;52.788;6.940;2023-04-24T07:29:27;9.10;99.90
53208;DHT22;39093;52.788;6.940;2023-04-24T07:31:54;9.20;99.90
53208;DHT22;39093;52.788;6.940;2023-04-24T07:34:22;9.10;99.90
53208;DHT22;39093;52.788;6.940;2023-04-24T07:36:48;9.10;99.90
53208;DHT22;39093;52.788;6.940;2023-04-24T07:39:15;9.10;99.90
53208;DHT22;39093;52.788;6.940;2023-04-24T07:41:42;9.20;99.90
53208;DHT22;39093;52.788;6.940;2023-04-24T07:44:09;9.20;99.90
53208;DHT22;39093;52.788;6.940;2023-04-24T07:46:36;9.20;99.90
53208;DHT22;39093;52.788;6.940;2023-04-24T07:49:04;9.30;99.90
53208;DHT22;39093;52.788;6.940;2023-04-24T07:51:40;9.40;99.90
53208;DHT22;39093;52.788;6.940;2023-04-24T07:54:08;9.40;99.90
53208;DHT22;39093;52.788;6.940;2023-04-24T07:56:35;9.50;99.90
53208;DHT22;39093;52.788;6.940;2023-04-24T07:59:06;9.50;99.90
53208;DHT22;39093;52.788;6.940;2023-04-24T08:01:33;9.50;99.90
53208;DHT22;39093;52.788;6.940;2023-04-24T08:03:59;9.60;99.90
53208;DHT22;39093;52.788;6.940;2023-04-24T08:06:28;9.60;99.90
53208;DHT22;39093;52.788;6.940;2023-04-24T08:08:57;9.60;99.90
53208;DHT22;39093;52.788;6.940;2023-04-24T08:11:25;9.70;99.90
53208;DHT22;39093;52.788;6.940;2023-04-24T08:13:52;9.70;99.90
53208;DHT22;39093;52.788;6.940;2023-04-24T08:16:19;9.70;99.90
53208;DHT22;39093;52.788;6.940;2023-04-24T08:18:46;9.70;99.90
53208;DHT22;39093;52.788;6.940;2023-04-24T08:21:13;9.80;99.90
53208;DHT22;39093;52.788;6.940;2023-04-24T08:23:44;9.70;99.90
53208;DHT22;39093;52.788;6.940;2023-04-24T08:26:12;9.70;99.90
53208;DHT22;39093;52.788;6.940;2023-04-24T08:28:39;9.70;99.90
53208;DHT22;39093;52.788;6.940;2023-04-24T08:31:06;9.70;99.90
53208;DHT22;39093;52.788;6.940;2023-04-24T08:33:33;9.70;99.90
53208;DHT22;39093;52.788;6.940;2023-04-24T08:36:04;9.70;99.90
53208;DHT22;39093;52.788;6.940;2023-04-24T08:38:31;9.80;99.90
53208;DHT22;39093;52.788;6.940;2023-04-24T08:41:00;9.80;99.90
53208;DHT22;39093;52.788;6.940;2023-04-24T08:43:27;9.80;99.90
53208;DHT22;39093;52.788;6.940;2023-04-24T08:45:58;9.70;99.90
53208;DHT22;39093;52.788;6.940;2023-04-24T08:48:26;9.70;99.90
53208;DHT22;39093;52.788;6.940;2023-04-24T08:50:58;9.70;99.90
53208;DHT22;39093;52.788;6.940;2023-04-24T08:53:26;9.60;99.90
53208;DHT22;39093;52.788;6.940;2023-04-24T08:55:55;9.60;99.90
53208;DHT22;39093;52.788;6.940;2023-04-24T08:58:26;9.70;99.90
53208;DHT22;39093;52.788;6.940;2023-04-24T09:00:55;9.70;99.90
53208;DHT22;39093;52.788;6.940;2023-04-24T09:03:22;9.70;99.90
53208;DHT22;39093;52.788;6.940;2023-04-24T09:05:50;9.70;99.90
53208;DHT22;39093;52.788;6.940;2023-04-24T09:08:18;9.70;99.90
53208;DHT22;39093;52.788;6.940;2023-04-24T09:10:46;9.70;99.90
53208;DHT22;39093;52.788;6.940;2023-04-24T09:13:17;9.60;99.90
53208;DHT22;39093;52.788;6.940;2023-04-24T09:15:45;9.60;99.90
53208;DHT22;39093;52.788;6.940;2023-04-24T09:18:12;9.60;99.90
53208;DHT22;39093;52.788;6.940;2023-04-24T09:23:32;9.50;99.90
53208;DHT22;39093;52.788;6.940;2023-04-24T09:26:22;9.40;99.90
53208;DHT22;39093;52.788;6.940;2023-04-24T09:28:50;9.50;99.90
53208;DHT22;39093;52.788;6.940;2023-04-24T09:31:19;9.50;99.90
53208;DHT22;39093;52.788;6.940;2023-04-24T09:34:02;9.50;99.90
53208;DHT22;39093;52.788;6.940;2023-04-24T09:36:39;9.60;99.90
53208;DHT22;39093;52.788;6.940;2023-04-24T09:39:15;9.60;99.90
53208;DHT22;39093;52.788;6.940;2023-04-24T09:41:49;9.60;99.90
53208;DHT22;39093;52.788;6.940;2023-04-24T09:46:49;9.60;99.90
53208;DHT22;39093;52.788;6.940;2023-04-24T09:49:27;9.60;99.90
53208;DHT22;39093;52.788;6.940;2023-04-24T09:52:08;9.50;99.90
53208;DHT22;39093;52.788;6.940;2023-04-24T09:54:36;9.50;99.90
53208;DHT22;39093;52.788;6.940;2023-04-24T09:57:04;9.50;99.90
53208;DHT22;39093;52.788;6.940;2023-04-24T09:59:31;9.40;99.90
53208;DHT22;39093;52.788;6.940;2023-04-24T10:02:00;9.40;99.90
53208;DHT22;39093;52.788;6.940;2023-04-24T10:04:28;9.30;99.90
53208;DHT22;39093;52.788;6.940;2023-04-24T10:06:56;9.30;99.90
53208;DHT22;39093;52.788;6.940;2023-04-24T10:09:25;9.30;99.90
53208;DHT22;39093;52.788;6.940;2023-04-24T10:11:54;9.30;99.90
53208;DHT22;39093;52.788;6.940;2023-04-24T10:14:23;9.30;99.90
53208;DHT22;39093;52.788;6.940;2023-04-24T10:16:53;9.30;99.90
53208;DHT22;39093;52.788;6.940;2023-04-24T10:19:21;9.30;99.90
53208;DHT22;39093;52.788;6.940;2023-04-24T10:21:51;9.30;99.90
53208;DHT22;39093;52.788;6.940;2023-04-24T10:24:19;9.40;99.90
53208;DHT22;39093;52.788;6.940;2023-04-24T10:26:48;9.40;99.90
53208;DHT22;39093;52.788;6.940;2023-04-24T10:29:18;9.30;99.90
53208;DHT22;39093;52.788;6.940;2023-04-24T10:31:48;9.30;99.90
53208;DHT22;39093;52.788;6.940;2023-04-24T10:34:17;9.30;99.90
53208;DHT22;39093;52.788;6.940;2023-04-24T10:36:51;9.30;99.90
53208;DHT22;39093;52.788;6.940;2023-04-24T10:39:21;9.20;99.90
53208;DHT22;39093;52.788;6.940;2023-04-24T10:41:54;9.30;99.90
53208;DHT22;39093;52.788;6.940;2023-04-24T10:44:24;9.30;99.90
53208;DHT22;39093;52.788;6.940;2023-04-24T10:46:55;9.30;99.90
53208;DHT22;39093;52.788;6.940;2023-04-24T10:49:30;9.40;99.90
53208;DHT22;39093;52.788;6.940;2023-04-24T10:52:02;9.40;99.90
53208;DHT22;39093;52.788;6.940;2023-04-24T10:54:51;9.50;99.90
53208;DHT22;39093;52.788;6.940;2023-04-24T11:00:10;9.40;99.90
53208;DHT22;39093;52.788;6.940;2023-04-24T11:02:40;9.50;99.90
53208;DHT22;39093;52.788;6.940;2023-04-24T11:05:10;9.40;99.90
53208;DHT22;39093;52.788;6.940;2023-04-24T11:10:55;9.40;99.90
53208;DHT22;39093;52.788;6.940;2023-04-24T11:13:27;9.40;99.90
53208;DHT22;39093;52.788;6.940;2023-04-24T11:16:15;9.30;99.90
53208;DHT22;39093;52.788;6.940;2023-04-24T11:18:42;9.30;99.90
53208;DHT22;39093;52.788;6.940;2023-04-24T11:21:17;9.30;99.90
53208;DHT22;39093;52.788;6.940;2023-04-24T11:23:45;9.20;99.90
53208;DHT22;39093;52.788;6.940;2023-04-24T11:26:23;9.20;99.90
53208;DHT22;39093;52.788;6.940;2023-04-24T11:29:08;9.20;99.90
53208;DHT22;39093;52.788;6.940;2023-04-24T11:31:39;9.20;99.90
53208;DHT22;39093;52.788;6.940;2023-04-24T11:34:09;9.10;99.90
53208;DHT22;39093;52.788;6.940;2023-04-24T11:36:36;9.30;99.90
53208;DHT22;39093;52.788;6.940;2023-04-24T11:39:04;9.40;99.90
53208;DHT22;39093;52.788;6.940;2023-04-24T11:41:31;9.40;99.90
53208;DHT22;39093;52.788;6.940;2023-04-24T11:43:58;9.50;99.90
53208;DHT22;39093;52.788;6.940;2023-04-24T11:46:30;9.40;99.90
53208;DHT22;39093;52.788;6.940;2023-04-24T11:48:58;9.40;99.90
53208;DHT22;39093;52.788;6.940;2023-04-24T11:51:27;9.30;99.90
53208;DHT22;39093;52.788;6.940;2023-04-24T11:54:07;9.30;99.90
53208;DHT22;39093;52.788;6.940;2023-04-24T11:56:34;9.30;99.90
53208;DHT22;39093;52.788;6.940;2023-04-24T11:59:04;9.20;99.90
53208;DHT22;39093;52.788;6.940;2023-04-24T12:01:43;9.20;99.90
53208;DHT22;39093;52.788;6.940;2023-04-24T12:04:10;9.10;99.90
53208;DHT22;39093;52.788;6.940;2023-04-24T12:06:37;9.20;99.90
53208;DHT22;39093;52.788;6.940;2023-04-24T12:09:04;9.20;99.90
53208;DHT22;39093;52.788;6.940;2023-04-24T12:11:53;9.20;99.90
53208;DHT22;39093;52.788;6.940;2023-04-24T12:14:21;9.30;99.90
53208;DHT22;39093;52.788;6.940;2023-04-24T12:16:48;9.40;99.90
53208;DHT22;39093;52.788;6.940;2023-04-24T12:19:22;9.50;99.90
53208;DHT22;39093;52.788;6.940;2023-04-24T12:22:03;9.70;99.90
53208;DHT22;39093;52.788;6.940;2023-04-24T12:24:31;9.80;99.90
53208;DHT22;39093;52.788;6.940;2023-04-24T12:26:58;9.90;99.90
53208;DHT22;39093;52.788;6.940;2023-04-24T12:29:28;9.80;99.90
53208;DHT22;39093;52.788;6.940;2023-04-24T12:31:55;9.70;99.90
53208;DHT22;39093;52.788;6.940;2023-04-24T12:34:23;9.60;99.90
53208;DHT22;39093;52.788;6.940;2023-04-24T12:36:51;9.60;99.90
53208;DHT22;39093;52.788;6.940;2023-04-24T12:39:19;9.50;99.90
53208;DHT22;39093;52.788;6.940;2023-04-24T12:41:56;9.40;99.90
53208;DHT22;39093;52.788;6.940;2023-04-24T12:44:32;9.40;99.90
53208;DHT22;39093;52.788;6.940;2023-04-24T12:47:01;9.40;99.90
53208;DHT22;39093;52.788;6.940;2023-04-24T12:49:30;9.40;99.90
53208;DHT22;39093;52.788;6.940;2023-04-24T12:51:57;9.20;99.90
53208;DHT22;39093;52.788;6.940;2023-04-24T12:54:24;9.20;99.90
53208;DHT22;39093;52.788;6.940;2023-04-24T12:56:51;9.20;99.90
53208;DHT22;39093;52.788;6.940;2023-04-24T12:59:18;9.20;99.90
53208;DHT22;39093;52.788;6.940;2023-04-24T13:01:44;9.30;99.90
53208;DHT22;39093;52.788;6.940;2023-04-24T13:04:12;9.30;99.90
53208;DHT22;39093;52.788;6.940;2023-04-24T13:06:39;9.40;99.90
53208;DHT22;39093;52.788;6.940;2023-04-24T13:09:05;9.30;99.90
53208;DHT22;39093;52.788;6.940;2023-04-24T13:11:32;9.30;99.90
53208;DHT22;39093;52.788;6.940;2023-04-24T13:13:59;9.40;99.90
53208;DHT22;39093;52.788;6.940;2023-04-24T13:16:26;9.50;99.90
53208;DHT22;39093;52.788;6.940;2023-04-24T13:18:53;9.60;99.90
53208;DHT22;39093;52.788;6.940;2023-04-24T13:21:20;9.70;99.90
53208;DHT22;39093;52.788;6.940;2023-04-24T13:23:47;9.80;99.90
53208;DHT22;39093;52.788;6.940;2023-04-24T13:26:14;9.90;99.90
53208;DHT22;39093;52.788;6.940;2023-04-24T13:28:41;9.90;99.90
53208;DHT22;39093;52.788;6.940;2023-04-24T13:31:08;9.90;99.90
53208;DHT22;39093;52.788;6.940;2023-04-24T13:33:35;9.90;99.90
53208;DHT22;39093;52.788;6.940;2023-04-24T13:36:02;9.90;99.90
53208;DHT22;39093;52.788;6.940;2023-04-24T13:38:29;9.80;99.90
53208;DHT22;39093;52.788;6.940;2023-04-24T13:40:56;9.80;99.90
53208;DHT22;39093;52.788;6.940;2023-04-24T13:43:23;9.70;99.90
53208;DHT22;39093;52.788;6.940;2023-04-24T13:45:51;9.60;99.90
53208;DHT22;39093;52.788;6.940;2023-04-24T13:48:18;9.50;99.90
53208;DHT22;39093;52.788;6.940;2023-04-24T13:50:45;9.50;99.90
53208;DHT22;39093;52.788;6.940;2023-04-24T13:53:15;9.50;99.90
53208;DHT22;39093;52.788;6.940;2023-04-24T13:55:41;9.50;99.90
53208;DHT22;39093;52.788;6.940;2023-04-24T13:58:08;9.50;99.90
53208;DHT22;39093;52.788;6.940;2023-04-24T14:00:36;9.60;99.90
53208;DHT22;39093;52.788;6.940;2023-04-24T14:03:03;9.60;99.90
53208;DHT22;39093;52.788;6.940;2023-04-24T14:05:30;9.70;99.90
53208;DHT22;39093;52.788;6.940;2023-04-24T14:07:57;9.70;99.90
53208;DHT22;39093;52.788;6.940;2023-04-24T14:10:24;9.60;99.90
53208;DHT22;39093;52.788;6.940;2023-04-24T14:12:52;9.60;99.90
53208;DHT22;39093;52.788;6.940;2023-04-24T14:15:19;9.60;99.90
53208;DHT22;39093;52.788;6.940;2023-04-24T14:17:47;9.60;99.90
53208;DHT22;39093;52.788;6.940;2023-04-24T14:20:15;9.50;99.90
53208;DHT22;39093;52.788;6.940;2023-04-24T14:22:42;9.40;99.90
53208;DHT22;39093;52.788;6.940;2023-04-24T14:25:09;9.30;99.90
53208;DHT22;39093;52.788;6.940;2023-04-24T14:27:38;9.30;99.90
53208;DHT22;39093;52.788;6.940;2023-04-24T14:30:08;9.20;99.90
53208;DHT22;39093;52.788;6.940;2023-04-24T14:32:35;9.10;99.90
53208;DHT22;39093;52.788;6.940;2023-04-24T14:35:03;9.00;99.90
53208;DHT22;39093;52.788;6.940;2023-04-24T14:37:30;9.00;99.90
53208;DHT22;39093;52.788;6.940;2023-04-24T14:39:57;9.00;99.90
53208;DHT22;39093;52.788;6.940;2023-04-24T14:42:43;8.90;99.90
53208;DHT22;39093;52.788;6.940;2023-04-24T14:45:11;9.00;99.90
53208;DHT22;39093;52.788;6.940;2023-04-24T14:47:37;9.00;99.90
53208;DHT22;39093;52.788;6.940;2023-04-24T14:50:05;9.10;99.90
53208;DHT22;39093;52.788;6.940;2023-04-24T14:52:32;9.10;99.90
53208;DHT22;39093;52.788;6.940;2023-04-24T14:55:00;9.20;99.90
53208;DHT22;39093;52.788;6.940;2023-04-24T14:57:26;9.30;99.90
53208;DHT22;39093;52.788;6.940;2023-04-24T14:59:55;9.30;99.90
53208;DHT22;39093;52.788;6.940;2023-04-24T15:02:22;9.40;99.90
53208;DHT22;39093;52.788;6.940;2023-04-24T15:04:49;9.40;99.90
53208;DHT22;39093;52.788;6.940;2023-04-24T15:07:16;9.30;99.90
53208;DHT22;39093;52.788;6.940;2023-04-24T15:09:43;9.30;99.90
53208;DHT22;39093;52.788;6.940;2023-04-24T15:12:10;9.30;99.90
53208;DHT22;39093;52.788;6.940;2023-04-24T15:14:40;9.30;99.90
53208;DHT22;39093;52.788;6.940;2023-04-24T15:17:07;9.40;99.90
53208;DHT22;39093;52.788;6.940;2023-04-24T15:19:34;9.30;99.90
53208;DHT22;39093;52.788;6.940;2023-04-24T15:22:01;9.30;99.90
53208;DHT22;39093;52.788;6.940;2023-04-24T15:24:28;9.30;99.90
53208;DHT22;39093;52.788;6.940;2023-04-24T15:26:55;9.30;99.90
53208;DHT22;39093;52.788;6.940;2023-04-24T15:29:26;9.40;99.90
53208;DHT22;39093;52.788;6.940;2023-04-24T15:31:54;9.40;99.90
53208;DHT22;39093;52.788;6.940;2023-04-24T15:34:26;9.40;99.90
53208;DHT22;39093;52.788;6.940;2023-04-24T15:37:38;9.60;99.90
53208;DHT22;39093;52.788;6.940;2023-04-24T15:40:20;9.60;99.90
53208;DHT22;39093;52.788;6.940;2023-04-24T15:43:23;9.60;99.90
53208;DHT22;39093;52.788;6.940;2023-04-24T15:46:47;9.80;99.90
53208;DHT22;39093;52.788;6.940;2023-04-24T15:49:54;9.80;99.90
53208;DHT22;39093;52.788;6.940;2023-04-24T15:52:59;10.00;99.90
53208;DHT22;39093;52.788;6.940;2023-04-24T15:55:54;10.30;99.90
53208;DHT22;39093;52.788;6.940;2023-04-24T15:59:22;10.30;99.90
53208;DHT22;39093;52.788;6.940;2023-04-24T16:02:46;10.10;99.90
53208;DHT22;39093;52.788;6.940;2023-04-24T16:05:43;9.90;99.90
53208;DHT22;39093;52.788;6.940;2023-04-24T16:09:05;9.70;99.90
53208;DHT22;39093;52.788;6.940;2023-04-24T16:16:12;9.50;99.90